Kezdőlap
METAR-TAF:

METAR-TAF

Repülőterek :

Grinnell, Iowa, Amerikai Egyesült Államok

földrajzi szélesség: 41-42-35N, földrajzi hosszúság: 092-44-09W, magasság: 307 m

Jelenlegi meteorológiai megfigyelések

A jelentés 24 perccel ezelõtt készült, 14:55 UTC
Északnyugati szél 13 kt széllökések: 21 kt
Hőmérséklet 15°C
Páratartalom 48%
Légköri nyomás 1021 hPa
Látótávolság: 16.1 km
Szakadozott felhőzet 4100 lábon

METAR: KGGI 011455Z AUTO 32013G21KT 10SM BKN041 15/04 A3016 RMK AO2 T01460044

Idő: 10:19 (15:19 UTC)


TAF: hiányzik

Meteorológiai megfigyelések és előrejelzések több, mint 4000 repülőtéren (METAR és TAF jelentéseket).

A térképen piros és sárga pontok jelzik az elérhető meteorológiai állomásokat.

Mozgassa az egeret a pont fölött, hogy megjelenjen az állomás neve.

Azután kattintson az időjárási megfigyelések és előrejelzések megtekintéséhez.

A térkép megváltoztatása: kattintson a fekete keresztel jelölt zöld gombra ráközelítéshez, a vonallal jelölt zöld gombra távolításhoz, vagy a zöld nyilakra a szomszédos térképek eléréséhez.


METAR-TAF: